sensor_id;sensor_type;location;lat;lon;timestamp;P1;durP1;ratioP1;P2;durP2;ratioP2
54545;SDS011;40444;45.184;9.850;2022-11-20T00:01:34;43.83;;;24.90;;
54545;SDS011;40444;45.184;9.850;2022-11-20T00:04:03;41.45;;;24.48;;
54545;SDS011;40444;45.184;9.850;2022-11-20T00:06:31;39.28;;;24.80;;
54545;SDS011;40444;45.184;9.850;2022-11-20T00:09:00;42.05;;;25.33;;
54545;SDS011;40444;45.184;9.850;2022-11-20T00:11:29;40.63;;;24.10;;
54545;SDS011;40444;45.184;9.850;2022-11-20T00:14:00;37.50;;;23.65;;
54545;SDS011;40444;45.184;9.850;2022-11-20T00:16:30;44.15;;;24.60;;
54545;SDS011;40444;45.184;9.850;2022-11-20T00:19:00;36.47;;;21.80;;
54545;SDS011;40444;45.184;9.850;2022-11-20T00:21:29;39.78;;;22.85;;
54545;SDS011;40444;45.184;9.850;2022-11-20T00:23:58;38.38;;;23.65;;
54545;SDS011;40444;45.184;9.850;2022-11-20T00:26:27;37.22;;;24.52;;
54545;SDS011;40444;45.184;9.850;2022-11-20T00:28:57;42.13;;;24.00;;
54545;SDS011;40444;45.184;9.850;2022-11-20T00:31:29;39.47;;;23.30;;
54545;SDS011;40444;45.184;9.850;2022-11-20T00:33:59;41.20;;;24.63;;
54545;SDS011;40444;45.184;9.850;2022-11-20T00:36:27;36.58;;;22.83;;
54545;SDS011;40444;45.184;9.850;2022-11-20T00:38:57;43.13;;;25.83;;
54545;SDS011;40444;45.184;9.850;2022-11-20T00:41:27;39.17;;;23.80;;
54545;SDS011;40444;45.184;9.850;2022-11-20T00:43:57;38.67;;;23.38;;
54545;SDS011;40444;45.184;9.850;2022-11-20T00:46:26;38.67;;;23.40;;
54545;SDS011;40444;45.184;9.850;2022-11-20T00:48:56;35.90;;;23.23;;
54545;SDS011;40444;45.184;9.850;2022-11-20T00:51:25;39.83;;;23.63;;
54545;SDS011;40444;45.184;9.850;2022-11-20T00:53:57;43.30;;;24.58;;
54545;SDS011;40444;45.184;9.850;2022-11-20T00:56:27;34.03;;;21.33;;
54545;SDS011;40444;45.184;9.850;2022-11-20T00:58:58;33.70;;;21.20;;
54545;SDS011;40444;45.184;9.850;2022-11-20T01:01:28;36.25;;;20.45;;
54545;SDS011;40444;45.184;9.850;2022-11-20T01:03:58;38.88;;;22.63;;
54545;SDS011;40444;45.184;9.850;2022-11-20T01:06:29;38.05;;;22.02;;
54545;SDS011;40444;45.184;9.850;2022-11-20T01:09:00;39.58;;;23.55;;
54545;SDS011;40444;45.184;9.850;2022-11-20T01:11:33;37.17;;;23.67;;
54545;SDS011;40444;45.184;9.850;2022-11-20T01:14:06;35.55;;;21.35;;
54545;SDS011;40444;45.184;9.850;2022-11-20T01:16:37;26.85;;;18.17;;
54545;SDS011;40444;45.184;9.850;2022-11-20T01:19:09;32.88;;;20.23;;
54545;SDS011;40444;45.184;9.850;2022-11-20T01:24:13;32.53;;;19.75;;
54545;SDS011;40444;45.184;9.850;2022-11-20T01:26:44;34.40;;;19.70;;
54545;SDS011;40444;45.184;9.850;2022-11-20T01:29:16;30.75;;;20.25;;
54545;SDS011;40444;45.184;9.850;2022-11-20T01:31:47;32.20;;;20.20;;
54545;SDS011;40444;45.184;9.850;2022-11-20T01:34:17;33.15;;;18.55;;
54545;SDS011;40444;45.184;9.850;2022-11-20T01:36:46;29.58;;;18.63;;
54545;SDS011;40444;45.184;9.850;2022-11-20T01:39:16;25.95;;;17.40;;
54545;SDS011;40444;45.184;9.850;2022-11-20T01:41:47;26.80;;;18.13;;
54545;SDS011;40444;45.184;9.850;2022-11-20T01:50:18;33.15;;;21.92;;
54545;SDS011;40444;45.184;9.850;2022-11-20T01:52:53;39.92;;;24.45;;
54545;SDS011;40444;45.184;9.850;2022-11-20T01:55:28;33.47;;;22.02;;
54545;SDS011;40444;45.184;9.850;2022-11-20T01:58:04;38.42;;;22.13;;
54545;SDS011;40444;45.184;9.850;2022-11-20T02:00:33;38.30;;;23.48;;
54545;SDS011;40444;45.184;9.850;2022-11-20T02:03:02;31.60;;;21.13;;
54545;SDS011;40444;45.184;9.850;2022-11-20T02:05:53;31.23;;;20.40;;
54545;SDS011;40444;45.184;9.850;2022-11-20T02:08:29;26.55;;;16.95;;
54545;SDS011;40444;45.184;9.850;2022-11-20T02:10:58;23.33;;;15.50;;
54545;SDS011;40444;45.184;9.850;2022-11-20T02:13:27;26.13;;;18.40;;
54545;SDS011;40444;45.184;9.850;2022-11-20T02:16:13;25.38;;;17.15;;
54545;SDS011;40444;45.184;9.850;2022-11-20T02:18:58;20.85;;;14.00;;
54545;SDS011;40444;45.184;9.850;2022-11-20T02:21:37;21.75;;;14.82;;
54545;SDS011;40444;45.184;9.850;2022-11-20T02:24:11;18.27;;;13.73;;
54545;SDS011;40444;45.184;9.850;2022-11-20T02:29:35;17.77;;;13.60;;
54545;SDS011;40444;45.184;9.850;2022-11-20T02:32:21;18.40;;;13.30;;
54545;SDS011;40444;45.184;9.850;2022-11-20T02:34:54;17.35;;;12.95;;
54545;SDS011;40444;45.184;9.850;2022-11-20T02:37:27;16.23;;;12.75;;
54545;SDS011;40444;45.184;9.850;2022-11-20T02:40:00;15.80;;;12.25;;
54545;SDS011;40444;45.184;9.850;2022-11-20T02:42:28;15.57;;;12.98;;
54545;SDS011;40444;45.184;9.850;2022-11-20T02:44:56;15.00;;;12.25;;
54545;SDS011;40444;45.184;9.850;2022-11-20T02:47:25;16.17;;;12.75;;
54545;SDS011;40444;45.184;9.850;2022-11-20T02:49:53;13.93;;;11.65;;
54545;SDS011;40444;45.184;9.850;2022-11-20T02:52:22;13.70;;;11.73;;
54545;SDS011;40444;45.184;9.850;2022-11-20T02:54:51;14.35;;;12.57;;
54545;SDS011;40444;45.184;9.850;2022-11-20T02:57:20;14.85;;;12.57;;
54545;SDS011;40444;45.184;9.850;2022-11-20T02:59:49;15.55;;;13.50;;
54545;SDS011;40444;45.184;9.850;2022-11-20T03:02:17;15.05;;;12.75;;
54545;SDS011;40444;45.184;9.850;2022-11-20T03:04:46;15.50;;;12.18;;
54545;SDS011;40444;45.184;9.850;2022-11-20T03:07:14;17.08;;;13.73;;
54545;SDS011;40444;45.184;9.850;2022-11-20T03:09:43;19.20;;;12.77;;
54545;SDS011;40444;45.184;9.850;2022-11-20T03:12:11;15.82;;;12.55;;
54545;SDS011;40444;45.184;9.850;2022-11-20T03:14:39;15.80;;;12.68;;
54545;SDS011;40444;45.184;9.850;2022-11-20T03:17:08;20.08;;;13.38;;
54545;SDS011;40444;45.184;9.850;2022-11-20T03:19:37;18.70;;;13.48;;
54545;SDS011;40444;45.184;9.850;2022-11-20T03:22:06;16.30;;;13.27;;
54545;SDS011;40444;45.184;9.850;2022-11-20T03:24:34;17.23;;;13.10;;
54545;SDS011;40444;45.184;9.850;2022-11-20T03:27:03;15.25;;;11.85;;
54545;SDS011;40444;45.184;9.850;2022-11-20T03:29:31;14.52;;;11.63;;
54545;SDS011;40444;45.184;9.850;2022-11-20T03:32:00;14.38;;;11.90;;
54545;SDS011;40444;45.184;9.850;2022-11-20T03:34:29;13.98;;;10.88;;
54545;SDS011;40444;45.184;9.850;2022-11-20T03:36:57;14.50;;;12.15;;
54545;SDS011;40444;45.184;9.850;2022-11-20T03:39:25;13.45;;;11.40;;
54545;SDS011;40444;45.184;9.850;2022-11-20T03:41:54;13.10;;;10.77;;
54545;SDS011;40444;45.184;9.850;2022-11-20T03:44:22;11.80;;;10.15;;
54545;SDS011;40444;45.184;9.850;2022-11-20T03:46:50;12.68;;;10.52;;
54545;SDS011;40444;45.184;9.850;2022-11-20T03:49:19;13.55;;;10.25;;
54545;SDS011;40444;45.184;9.850;2022-11-20T03:51:48;14.43;;;11.90;;
54545;SDS011;40444;45.184;9.850;2022-11-20T03:54:16;14.70;;;12.10;;
54545;SDS011;40444;45.184;9.850;2022-11-20T03:56:45;13.32;;;11.00;;
54545;SDS011;40444;45.184;9.850;2022-11-20T03:59:13;15.60;;;12.43;;
54545;SDS011;40444;45.184;9.850;2022-11-20T04:01:42;14.60;;;12.52;;
54545;SDS011;40444;45.184;9.850;2022-11-20T04:04:15;13.05;;;10.98;;
54545;SDS011;40444;45.184;9.850;2022-11-20T04:06:44;13.02;;;11.48;;
54545;SDS011;40444;45.184;9.850;2022-11-20T04:09:12;13.95;;;11.45;;
54545;SDS011;40444;45.184;9.850;2022-11-20T04:11:41;13.32;;;11.00;;
54545;SDS011;40444;45.184;9.850;2022-11-20T04:14:13;12.55;;;11.25;;
54545;SDS011;40444;45.184;9.850;2022-11-20T04:16:43;12.95;;;10.85;;
54545;SDS011;40444;45.184;9.850;2022-11-20T04:19:13;14.63;;;11.45;;
54545;SDS011;40444;45.184;9.850;2022-11-20T04:21:44;12.45;;;11.18;;
54545;SDS011;40444;45.184;9.850;2022-11-20T04:24:12;14.07;;;11.00;;
54545;SDS011;40444;45.184;9.850;2022-11-20T04:26:41;14.35;;;11.20;;
54545;SDS011;40444;45.184;9.850;2022-11-20T04:29:10;13.45;;;10.93;;
54545;SDS011;40444;45.184;9.850;2022-11-20T04:31:39;13.73;;;11.38;;
54545;SDS011;40444;45.184;9.850;2022-11-20T04:34:10;14.30;;;11.57;;
54545;SDS011;40444;45.184;9.850;2022-11-20T04:36:39;14.52;;;11.93;;
54545;SDS011;40444;45.184;9.850;2022-11-20T04:39:11;14.50;;;12.02;;
54545;SDS011;40444;45.184;9.850;2022-11-20T04:41:40;15.38;;;12.85;;
54545;SDS011;40444;45.184;9.850;2022-11-20T04:44:09;14.23;;;12.15;;
54545;SDS011;40444;45.184;9.850;2022-11-20T04:46:39;16.17;;;12.43;;
54545;SDS011;40444;45.184;9.850;2022-11-20T04:49:10;16.30;;;12.10;;
54545;SDS011;40444;45.184;9.850;2022-11-20T04:51:39;17.63;;;14.35;;
54545;SDS011;40444;45.184;9.850;2022-11-20T04:54:08;16.55;;;13.25;;
54545;SDS011;40444;45.184;9.850;2022-11-20T04:56:37;19.55;;;14.02;;
54545;SDS011;40444;45.184;9.850;2022-11-20T04:59:06;15.73;;;13.13;;
54545;SDS011;40444;45.184;9.850;2022-11-20T05:01:34;13.85;;;12.15;;
54545;SDS011;40444;45.184;9.850;2022-11-20T05:04:02;15.68;;;13.27;;
54545;SDS011;40444;45.184;9.850;2022-11-20T05:06:31;14.88;;;12.90;;
54545;SDS011;40444;45.184;9.850;2022-11-20T05:09:00;14.32;;;12.38;;
54545;SDS011;40444;45.184;9.850;2022-11-20T05:11:28;13.40;;;11.57;;
54545;SDS011;40444;45.184;9.850;2022-11-20T05:13:58;12.35;;;11.05;;
54545;SDS011;40444;45.184;9.850;2022-11-20T05:16:27;13.95;;;11.40;;
54545;SDS011;40444;45.184;9.850;2022-11-20T05:18:55;13.50;;;12.10;;
54545;SDS011;40444;45.184;9.850;2022-11-20T05:21:23;15.25;;;12.45;;
54545;SDS011;40444;45.184;9.850;2022-11-20T05:23:52;13.77;;;11.60;;
54545;SDS011;40444;45.184;9.850;2022-11-20T05:26:22;13.13;;;11.30;;
54545;SDS011;40444;45.184;9.850;2022-11-20T05:28:51;13.13;;;11.55;;
54545;SDS011;40444;45.184;9.850;2022-11-20T05:31:20;13.90;;;11.82;;
54545;SDS011;40444;45.184;9.850;2022-11-20T05:33:54;13.55;;;11.95;;
54545;SDS011;40444;45.184;9.850;2022-11-20T05:36:24;14.40;;;12.10;;
54545;SDS011;40444;45.184;9.850;2022-11-20T05:38:53;13.10;;;11.30;;
54545;SDS011;40444;45.184;9.850;2022-11-20T05:41:27;13.82;;;12.10;;
54545;SDS011;40444;45.184;9.850;2022-11-20T05:43:56;15.70;;;12.77;;
54545;SDS011;40444;45.184;9.850;2022-11-20T05:46:27;13.15;;;11.63;;
54545;SDS011;40444;45.184;9.850;2022-11-20T05:48:56;15.73;;;12.35;;
54545;SDS011;40444;45.184;9.850;2022-11-20T05:51:26;13.95;;;11.77;;
54545;SDS011;40444;45.184;9.850;2022-11-20T05:53:58;14.25;;;11.95;;
54545;SDS011;40444;45.184;9.850;2022-11-20T05:56:27;14.75;;;12.52;;
54545;SDS011;40444;45.184;9.850;2022-11-20T05:58:55;15.20;;;13.02;;
54545;SDS011;40444;45.184;9.850;2022-11-20T06:01:24;14.52;;;12.23;;
54545;SDS011;40444;45.184;9.850;2022-11-20T06:03:53;14.10;;;12.25;;
54545;SDS011;40444;45.184;9.850;2022-11-20T06:06:22;14.50;;;12.32;;
54545;SDS011;40444;45.184;9.850;2022-11-20T06:08:51;14.20;;;11.70;;
54545;SDS011;40444;45.184;9.850;2022-11-20T06:11:20;14.48;;;12.30;;
54545;SDS011;40444;45.184;9.850;2022-11-20T06:13:49;13.88;;;11.90;;
54545;SDS011;40444;45.184;9.850;2022-11-20T06:16:18;13.15;;;11.77;;
54545;SDS011;40444;45.184;9.850;2022-11-20T06:18:48;13.63;;;12.20;;
54545;SDS011;40444;45.184;9.850;2022-11-20T06:21:17;13.63;;;11.82;;
54545;SDS011;40444;45.184;9.850;2022-11-20T06:23:48;14.63;;;12.07;;
54545;SDS011;40444;45.184;9.850;2022-11-20T06:26:19;14.35;;;11.43;;
54545;SDS011;40444;45.184;9.850;2022-11-20T06:28:52;12.77;;;10.80;;
54545;SDS011;40444;45.184;9.850;2022-11-20T06:31:22;15.30;;;12.85;;
54545;SDS011;40444;45.184;9.850;2022-11-20T06:33:52;13.55;;;11.82;;
54545;SDS011;40444;45.184;9.850;2022-11-20T06:36:21;13.85;;;11.45;;
54545;SDS011;40444;45.184;9.850;2022-11-20T06:38:50;13.25;;;11.82;;
54545;SDS011;40444;45.184;9.850;2022-11-20T06:41:20;13.90;;;11.75;;
54545;SDS011;40444;45.184;9.850;2022-11-20T06:43:49;15.00;;;12.82;;
54545;SDS011;40444;45.184;9.850;2022-11-20T06:46:19;14.38;;;12.70;;
54545;SDS011;40444;45.184;9.850;2022-11-20T06:48:48;14.95;;;13.00;;
54545;SDS011;40444;45.184;9.850;2022-11-20T06:51:17;14.85;;;11.70;;
54545;SDS011;40444;45.184;9.850;2022-11-20T06:53:45;14.02;;;12.13;;
54545;SDS011;40444;45.184;9.850;2022-11-20T06:56:14;14.13;;;12.07;;
54545;SDS011;40444;45.184;9.850;2022-11-20T06:58:43;14.82;;;12.57;;
54545;SDS011;40444;45.184;9.850;2022-11-20T19:31:40;38.10;;;25.17;;
54545;SDS011;40444;45.184;9.850;2022-11-20T19:34:08;37.55;;;24.75;;
54545;SDS011;40444;45.184;9.850;2022-11-20T19:36:39;38.45;;;26.35;;
54545;SDS011;40444;45.184;9.850;2022-11-20T19:39:11;34.05;;;25.35;;
54545;SDS011;40444;45.184;9.850;2022-11-20T19:41:40;33.05;;;23.25;;
54545;SDS011;40444;45.184;9.850;2022-11-20T19:44:10;31.17;;;20.90;;
54545;SDS011;40444;45.184;9.850;2022-11-20T19:46:42;24.20;;;18.88;;
54545;SDS011;40444;45.184;9.850;2022-11-20T19:49:14;25.40;;;20.02;;
54545;SDS011;40444;45.184;9.850;2022-11-20T19:51:47;26.73;;;18.83;;
54545;SDS011;40444;45.184;9.850;2022-11-20T19:54:17;26.60;;;18.55;;
54545;SDS011;40444;45.184;9.850;2022-11-20T19:56:45;26.63;;;18.80;;
54545;SDS011;40444;45.184;9.850;2022-11-20T19:59:15;25.77;;;18.42;;
54545;SDS011;40444;45.184;9.850;2022-11-20T20:01:44;24.70;;;17.48;;
54545;SDS011;40444;45.184;9.850;2022-11-20T20:04:12;25.25;;;19.17;;
54545;SDS011;40444;45.184;9.850;2022-11-20T20:06:41;30.25;;;20.63;;
54545;SDS011;40444;45.184;9.850;2022-11-20T20:09:10;32.13;;;21.00;;
54545;SDS011;40444;45.184;9.850;2022-11-20T20:11:43;28.90;;;22.40;;
54545;SDS011;40444;45.184;9.850;2022-11-20T20:14:12;31.65;;;22.92;;
54545;SDS011;40444;45.184;9.850;2022-11-20T20:16:42;35.45;;;23.90;;
54545;SDS011;40444;45.184;9.850;2022-11-20T20:19:11;31.77;;;24.35;;
54545;SDS011;40444;45.184;9.850;2022-11-20T20:21:41;33.45;;;24.60;;
54545;SDS011;40444;45.184;9.850;2022-11-20T20:24:10;30.92;;;23.27;;
54545;SDS011;40444;45.184;9.850;2022-11-20T20:26:39;30.35;;;22.70;;
54545;SDS011;40444;45.184;9.850;2022-11-20T20:29:08;32.85;;;22.95;;
54545;SDS011;40444;45.184;9.850;2022-11-20T20:31:36;30.50;;;22.00;;
54545;SDS011;40444;45.184;9.850;2022-11-20T20:34:05;27.77;;;20.30;;
54545;SDS011;40444;45.184;9.850;2022-11-20T20:36:33;28.42;;;21.25;;
54545;SDS011;40444;45.184;9.850;2022-11-20T20:39:01;28.15;;;20.20;;
54545;SDS011;40444;45.184;9.850;2022-11-20T20:41:30;27.42;;;20.08;;
54545;SDS011;40444;45.184;9.850;2022-11-20T20:43:59;28.60;;;20.75;;
54545;SDS011;40444;45.184;9.850;2022-11-20T20:46:46;27.45;;;19.73;;
54545;SDS011;40444;45.184;9.850;2022-11-20T20:49:18;26.75;;;21.05;;
54545;SDS011;40444;45.184;9.850;2022-11-20T20:51:46;29.38;;;21.02;;
54545;SDS011;40444;45.184;9.850;2022-11-20T20:54:14;29.27;;;21.00;;
54545;SDS011;40444;45.184;9.850;2022-11-20T20:56:42;44.15;;;26.85;;
54545;SDS011;40444;45.184;9.850;2022-11-20T20:59:11;38.88;;;25.85;;
54545;SDS011;40444;45.184;9.850;2022-11-20T21:01:39;23.65;;;17.38;;
54545;SDS011;40444;45.184;9.850;2022-11-20T21:04:08;20.67;;;16.08;;
54545;SDS011;40444;45.184;9.850;2022-11-20T21:06:37;21.48;;;16.35;;
54545;SDS011;40444;45.184;9.850;2022-11-20T21:09:06;21.33;;;16.73;;
54545;SDS011;40444;45.184;9.850;2022-11-20T21:11:34;23.92;;;17.92;;
54545;SDS011;40444;45.184;9.850;2022-11-20T21:14:02;29.52;;;21.33;;
54545;SDS011;40444;45.184;9.850;2022-11-20T21:16:30;31.42;;;21.60;;
54545;SDS011;40444;45.184;9.850;2022-11-20T21:19:07;29.75;;;20.73;;
54545;SDS011;40444;45.184;9.850;2022-11-20T21:21:36;26.88;;;19.23;;
54545;SDS011;40444;45.184;9.850;2022-11-20T21:24:23;30.27;;;21.02;;
54545;SDS011;40444;45.184;9.850;2022-11-20T21:26:55;36.33;;;23.77;;
54545;SDS011;40444;45.184;9.850;2022-11-20T21:29:25;45.92;;;30.83;;
54545;SDS011;40444;45.184;9.850;2022-11-20T21:31:55;45.85;;;26.48;;
